createdAt,value
2023-09-28T00:00:33.527Z,2.25
2023-09-28T00:03:00.181Z,2.50
2023-09-28T00:05:29.659Z,1.92
2023-09-28T00:08:01.151Z,2.10
2023-09-28T00:10:30.852Z,2.38
2023-09-28T00:12:57.396Z,2.13
2023-09-28T00:15:27.875Z,2.15
2023-09-28T00:17:56.017Z,2.10
2023-09-28T00:20:23.850Z,2.08
2023-09-28T00:22:55.436Z,2.25
2023-09-28T00:25:24.369Z,2.10
2023-09-28T00:27:54.274Z,1.90
2023-09-28T00:30:25.821Z,2.30
2023-09-28T00:32:57.493Z,2.13
2023-09-28T00:35:25.139Z,2.40
2023-09-28T00:37:51.857Z,2.40
2023-09-28T00:40:34.094Z,2.03
2023-09-28T00:43:01.998Z,2.22
2023-09-28T00:45:29.393Z,2.10
2023-09-28T00:48:00.209Z,1.98
2023-09-28T00:50:29.104Z,2.38
2023-09-28T00:52:59.986Z,2.20
2023-09-28T00:55:30.818Z,2.15
2023-09-28T00:58:01.800Z,1.88
2023-09-28T01:00:35.211Z,2.25
2023-09-28T01:03:04.212Z,2.40
2023-09-28T01:05:35.787Z,2.10
2023-09-28T01:08:16.744Z,2.40
2023-09-28T01:10:43.759Z,2.33
2023-09-28T01:13:16.818Z,2.30
2023-09-28T01:15:44.817Z,2.50
2023-09-28T01:18:12.858Z,1.98
2023-09-28T01:20:39.850Z,2.17
2023-09-28T01:23:06.603Z,2.08
2023-09-28T01:25:34.099Z,2.00
2023-09-28T01:28:01.575Z,2.20
2023-09-28T01:30:28.634Z,2.35
2023-09-28T01:32:55.408Z,2.00
2023-09-28T01:35:22.110Z,2.20
2023-09-28T01:37:57.976Z,1.92
2023-09-28T01:40:24.470Z,1.92
2023-09-28T01:42:51.007Z,1.90
2023-09-28T01:45:17.532Z,1.80
2023-09-28T01:47:44.158Z,1.95
2023-09-28T01:50:11.223Z,2.63
2023-09-28T01:52:37.713Z,1.90
2023-09-28T01:55:04.410Z,1.95
2023-09-28T01:57:30.971Z,2.00
2023-09-28T01:59:57.420Z,2.30
2023-09-28T02:02:23.897Z,1.92
2023-09-28T02:04:50.390Z,2.30
2023-09-28T02:07:16.828Z,2.22
2023-09-28T02:09:43.526Z,2.00
2023-09-28T02:12:10.248Z,2.10
2023-09-28T02:14:37.397Z,2.33
2023-09-28T02:17:03.959Z,2.63
2023-09-28T02:19:30.536Z,2.10
2023-09-28T02:21:56.970Z,2.58
2023-09-28T02:24:23.475Z,2.20
2023-09-28T02:26:53.122Z,2.55
2023-09-28T02:29:19.568Z,2.50
2023-09-28T02:31:46.068Z,2.05
2023-09-28T02:34:12.658Z,2.50
2023-09-28T02:36:39.082Z,2.72
2023-09-28T02:39:08.744Z,2.38
2023-09-28T02:41:36.295Z,2.30
2023-09-28T02:44:03.223Z,2.47
2023-09-28T02:46:29.876Z,1.67
2023-09-28T02:48:56.509Z,2.17
2023-09-28T02:51:25.792Z,2.25
2023-09-28T02:53:52.400Z,2.15
2023-09-28T02:56:19.018Z,2.35
2023-09-28T02:58:48.691Z,2.00
2023-09-28T03:01:15.173Z,2.33
2023-09-28T03:03:41.742Z,2.50
2023-09-28T03:06:08.218Z,2.05
2023-09-28T03:08:34.722Z,2.40
2023-09-28T03:11:01.273Z,2.10
2023-09-28T03:13:27.882Z,2.38
2023-09-28T03:15:55.053Z,2.40
2023-09-28T03:18:22.922Z,2.40
2023-09-28T03:20:49.732Z,2.42
2023-09-28T03:23:16.263Z,2.47
2023-09-28T03:25:44.124Z,2.35
2023-09-28T03:28:10.754Z,2.50
2023-09-28T03:30:37.242Z,2.63
2023-09-28T03:33:04.157Z,2.33
2023-09-28T03:35:30.836Z,2.60
2023-09-28T03:37:59.827Z,2.47
2023-09-28T03:40:35.636Z,2.42
2023-09-28T03:43:02.535Z,2.70
2023-09-28T03:45:29.072Z,2.53
2023-09-28T03:47:58.274Z,2.47
2023-09-28T03:50:24.885Z,2.53
2023-09-28T03:52:52.328Z,2.17
2023-09-28T03:55:24.587Z,2.30
2023-09-28T03:57:52.061Z,2.47
2023-09-28T04:00:20.905Z,2.20
2023-09-28T04:02:52.861Z,2.72
2023-09-28T04:05:21.481Z,2.40
2023-09-28T04:07:48.157Z,2.50
2023-09-28T04:10:15.810Z,2.58
2023-09-28T04:12:42.669Z,2.95
2023-09-28T04:15:12.211Z,2.70
2023-09-28T04:17:41.307Z,2.60
2023-09-28T04:20:11.426Z,3.10
2023-09-28T04:22:38.053Z,2.60
2023-09-28T04:25:05.152Z,2.92
2023-09-28T04:27:31.757Z,2.60
2023-09-28T04:29:58.344Z,2.60
2023-09-28T04:32:24.803Z,2.70
2023-09-28T04:34:51.418Z,2.67
2023-09-28T04:37:17.986Z,3.00
2023-09-28T04:39:45.418Z,2.95
2023-09-28T04:42:15.954Z,2.70
2023-09-28T04:44:44.866Z,3.08
2023-09-28T04:47:15.068Z,2.70
2023-09-28T04:49:44.355Z,2.90
2023-09-28T04:52:14.497Z,2.60
2023-09-28T04:54:41.235Z,3.00
2023-09-28T04:57:08.008Z,2.60
2023-09-28T04:59:40.514Z,2.80
2023-09-28T05:02:08.221Z,3.00
2023-09-28T05:04:36.105Z,2.50
2023-09-28T05:07:03.041Z,2.50
2023-09-28T05:09:29.624Z,3.03
2023-09-28T05:12:00.398Z,2.78
2023-09-28T05:14:27.806Z,2.80
2023-09-28T05:16:58.323Z,2.60
2023-09-28T05:19:28.400Z,2.90
2023-09-28T05:21:54.949Z,2.72
2023-09-28T05:24:21.466Z,3.28
2023-09-28T05:26:48.020Z,2.65
2023-09-28T05:29:14.483Z,2.88
2023-09-28T05:31:41.797Z,3.00
2023-09-28T05:34:08.769Z,2.83
2023-09-28T05:36:35.959Z,2.85
2023-09-28T05:39:04.224Z,2.63
2023-09-28T05:41:31.866Z,3.00
2023-09-28T05:43:58.350Z,3.15
2023-09-28T05:46:25.009Z,3.28
2023-09-28T05:48:51.566Z,2.90
2023-09-28T05:51:18.710Z,3.00
2023-09-28T05:53:46.374Z,3.50
2023-09-28T05:56:17.635Z,2.80
2023-09-28T05:58:44.123Z,3.38
2023-09-28T06:01:14.653Z,3.25
2023-09-28T06:03:41.468Z,3.65
2023-09-28T06:06:18.428Z,2.90
2023-09-28T06:08:47.679Z,3.03
2023-09-28T06:11:15.324Z,3.30
2023-09-28T06:13:56.384Z,3.60
2023-09-28T06:16:29.193Z,3.22
2023-09-28T06:18:55.928Z,3.38
2023-09-28T06:21:22.985Z,3.13
2023-09-28T06:23:49.537Z,2.70
2023-09-28T06:26:30.170Z,2.72
2023-09-28T06:29:02.224Z,3.00
2023-09-28T06:31:29.102Z,3.53
2023-09-28T06:33:55.831Z,3.08
2023-09-28T06:36:39.979Z,3.15
2023-09-28T06:39:09.843Z,3.30
2023-09-28T06:41:36.485Z,2.97
2023-09-28T06:44:02.996Z,2.83
2023-09-28T06:46:29.966Z,3.42
2023-09-28T06:48:56.919Z,2.70
2023-09-28T06:51:27.480Z,2.97
2023-09-28T06:53:54.203Z,3.15
2023-09-28T06:56:21.601Z,2.95
2023-09-28T06:58:48.252Z,2.97
2023-09-28T07:01:14.820Z,2.92
2023-09-28T07:03:41.570Z,2.97
2023-09-28T07:06:08.332Z,3.75
2023-09-28T07:08:34.845Z,3.10
2023-09-28T07:11:02.290Z,3.33
2023-09-28T07:13:28.754Z,3.13
2023-09-28T07:15:58.298Z,3.03
2023-09-28T07:18:28.634Z,2.80
2023-09-28T07:20:56.680Z,3.10
2023-09-28T07:23:23.127Z,2.53
2023-09-28T07:25:52.159Z,2.72
2023-09-28T07:28:19.301Z,2.70
2023-09-28T07:30:45.892Z,3.90
2023-09-28T07:33:14.696Z,3.13
2023-09-28T07:35:41.565Z,4.13
2023-09-28T07:38:08.272Z,3.35
2023-09-28T07:40:46.996Z,3.55
2023-09-28T07:43:14.870Z,3.88
2023-09-28T07:45:42.013Z,4.47
2023-09-28T07:48:09.113Z,4.13
2023-09-28T07:50:36.252Z,3.83
2023-09-28T07:53:02.779Z,4.00
2023-09-28T07:55:29.271Z,4.38
2023-09-28T07:58:02.292Z,4.07
2023-09-28T08:00:38.635Z,4.07
2023-09-28T08:03:06.153Z,3.83
2023-09-28T08:05:35.812Z,4.28
2023-09-28T08:08:14.665Z,4.40
2023-09-28T08:10:43.264Z,4.18
2023-09-28T08:13:13.530Z,4.20
2023-09-28T08:15:42.104Z,4.30
2023-09-28T08:18:09.396Z,3.92
2023-09-28T08:20:36.594Z,4.18
2023-09-28T08:23:05.757Z,4.30
2023-09-28T08:25:32.852Z,3.85
2023-09-28T08:28:00.016Z,3.58
2023-09-28T08:30:26.456Z,4.05
2023-09-28T08:32:54.751Z,3.70
2023-09-28T08:35:21.952Z,3.30
2023-09-28T08:37:48.750Z,3.03
2023-09-28T08:40:15.462Z,3.30
2023-09-28T08:42:47.438Z,3.30
2023-09-28T08:45:16.955Z,3.92
2023-09-28T08:47:51.299Z,3.00
2023-09-28T08:50:25.152Z,3.75
2023-09-28T08:52:52.458Z,3.22
2023-09-28T08:55:20.329Z,3.55
2023-09-28T08:57:50.708Z,2.75
2023-09-28T09:00:23.827Z,3.00
2023-09-28T09:02:52.897Z,3.13
2023-09-28T09:05:20.188Z,2.85
2023-09-28T09:07:48.860Z,2.55
2023-09-28T09:10:21.253Z,3.05
2023-09-28T09:12:48.577Z,3.05
2023-09-28T09:15:15.039Z,2.70
2023-09-28T09:17:41.798Z,2.17
2023-09-28T09:20:10.335Z,2.83
2023-09-28T09:22:49.065Z,2.67
2023-09-28T09:25:24.057Z,2.78
2023-09-28T09:27:51.345Z,3.05
2023-09-28T09:30:18.382Z,2.70
2023-09-28T09:32:46.039Z,3.22
2023-09-28T09:35:12.673Z,3.67
2023-09-28T09:37:43.217Z,3.17
2023-09-28T09:40:12.272Z,2.75
2023-09-28T09:42:38.808Z,3.67
2023-09-28T09:45:06.481Z,3.00
2023-09-28T09:47:32.968Z,3.10
2023-09-28T09:50:01.763Z,2.85
2023-09-28T09:52:29.703Z,2.92
2023-09-28T09:54:59.357Z,2.42
2023-09-28T09:57:30.644Z,2.88
2023-09-28T10:00:00.388Z,3.03
2023-09-28T10:02:28.045Z,3.00
2023-09-28T10:04:55.887Z,3.08
2023-09-28T10:07:46.627Z,2.50
2023-09-28T10:10:16.000Z,2.97
2023-09-28T10:12:43.069Z,3.35
2023-09-28T10:15:11.170Z,2.67
2023-09-28T10:17:38.685Z,2.92
2023-09-28T10:20:08.495Z,3.35
2023-09-28T10:22:35.434Z,3.00
2023-09-28T10:25:03.005Z,2.75
2023-09-28T10:27:32.309Z,3.45
2023-09-28T10:30:21.511Z,3.03
2023-09-28T10:32:51.676Z,2.60
2023-09-28T10:35:21.584Z,2.88
2023-09-28T10:38:20.407Z,3.08
2023-09-28T10:41:07.176Z,2.50
2023-09-28T10:43:44.182Z,3.28
2023-09-28T10:46:11.109Z,2.75
2023-09-28T10:48:45.537Z,3.92
2023-09-28T10:51:17.131Z,3.10
2023-09-28T10:53:44.634Z,2.85
2023-09-28T10:56:12.067Z,2.72
2023-09-28T10:58:40.468Z,3.00
2023-09-28T11:01:07.844Z,2.42
2023-09-28T11:03:36.202Z,3.50
2023-09-28T11:06:04.555Z,2.60
2023-09-28T11:08:35.134Z,2.90
2023-09-28T11:11:04.941Z,3.35
2023-09-28T11:13:34.067Z,2.47
2023-09-28T11:16:01.154Z,2.83
2023-09-28T11:18:28.561Z,2.95
2023-09-28T11:20:59.566Z,2.60
2023-09-28T11:23:26.410Z,3.20
2023-09-28T11:25:54.740Z,2.75
2023-09-28T11:28:22.941Z,2.90
2023-09-28T11:31:09.703Z,2.58
2023-09-28T11:33:40.321Z,2.50
2023-09-28T11:36:08.345Z,2.90
2023-09-28T11:38:35.132Z,2.45
2023-09-28T11:41:05.518Z,2.45
2023-09-28T11:43:48.396Z,2.80
2023-09-28T11:46:29.054Z,2.95
2023-09-28T11:49:05.810Z,2.80
2023-09-28T11:51:36.525Z,2.72
2023-09-28T11:54:07.774Z,2.33
2023-09-28T11:56:35.011Z,2.47
2023-09-28T11:59:01.966Z,2.20
2023-09-28T12:01:28.500Z,2.50
2023-09-28T12:03:56.166Z,2.78
2023-09-28T12:06:22.834Z,2.58
2023-09-28T12:08:51.026Z,2.33
2023-09-28T12:11:17.876Z,2.75
2023-09-28T12:13:44.562Z,2.95
2023-09-28T12:16:12.063Z,2.92
2023-09-28T12:18:38.792Z,2.90
2023-09-28T12:21:05.413Z,2.75
2023-09-28T12:23:31.847Z,2.45
2023-09-28T12:25:58.436Z,2.90
2023-09-28T12:28:24.831Z,2.90
2023-09-28T12:30:52.089Z,2.45
2023-09-28T12:33:18.846Z,2.47
2023-09-28T12:35:46.290Z,2.85
2023-09-28T12:38:13.217Z,2.78
2023-09-28T12:40:39.955Z,2.50
2023-09-28T12:43:06.801Z,2.65
2023-09-28T12:45:34.724Z,2.55
2023-09-28T12:48:05.595Z,2.33
2023-09-28T12:50:33.149Z,2.65
2023-09-28T12:53:00.810Z,2.95
2023-09-28T12:55:27.325Z,2.10
2023-09-28T12:57:55.284Z,2.33
2023-09-28T13:00:26.778Z,2.45
2023-09-28T13:02:53.693Z,3.10
2023-09-28T13:05:20.851Z,2.72
2023-09-28T13:07:47.728Z,2.42
2023-09-28T13:10:17.270Z,2.97
2023-09-28T13:12:44.967Z,2.55
2023-09-28T13:15:14.496Z,2.83
2023-09-28T13:17:41.825Z,2.78
2023-09-28T13:20:12.369Z,2.67
2023-09-28T13:22:38.919Z,2.80
2023-09-28T13:25:07.387Z,2.70
2023-09-28T13:27:35.694Z,3.25
2023-09-28T13:30:09.568Z,3.03
2023-09-28T13:32:36.100Z,3.25
2023-09-28T13:35:04.563Z,2.45
2023-09-28T13:37:31.895Z,2.78
2023-09-28T13:39:58.521Z,2.65
2023-09-28T13:42:24.985Z,3.13
2023-09-28T13:44:51.481Z,2.70
2023-09-28T13:47:17.967Z,2.70
2023-09-28T13:49:44.377Z,2.85
2023-09-28T13:52:11.648Z,2.92
2023-09-28T13:54:38.613Z,2.70
2023-09-28T13:57:10.235Z,2.90
2023-09-28T13:59:38.794Z,2.78
2023-09-28T14:02:05.261Z,2.65
2023-09-28T14:04:32.398Z,2.63
2023-09-28T14:06:58.821Z,2.97
2023-09-28T14:09:32.486Z,2.42
2023-09-28T14:11:59.002Z,2.70
2023-09-28T14:14:25.706Z,2.70
2023-09-28T14:16:52.887Z,2.95
2023-09-28T14:19:19.586Z,2.42
2023-09-28T14:21:46.069Z,2.63
2023-09-28T14:24:13.457Z,2.53
2023-09-28T14:26:43.523Z,2.25
2023-09-28T14:29:12.930Z,2.53
2023-09-28T14:31:40.042Z,2.47
2023-09-28T14:34:07.216Z,2.38
2023-09-28T14:36:33.811Z,2.13
2023-09-28T14:39:00.425Z,2.15
2023-09-28T14:41:27.060Z,2.50
2023-09-28T14:43:54.282Z,2.25
2023-09-28T14:46:21.388Z,2.40
2023-09-28T14:48:48.686Z,2.80
2023-09-28T14:51:15.565Z,2.65
2023-09-28T14:53:42.069Z,2.75
2023-09-28T14:56:08.817Z,2.13
2023-09-28T14:58:35.450Z,2.03
2023-09-28T15:01:01.940Z,2.58
2023-09-28T15:03:29.462Z,2.30
2023-09-28T15:05:56.037Z,2.20
2023-09-28T15:08:23.332Z,2.25
2023-09-28T15:10:50.763Z,2.20
2023-09-28T15:13:17.517Z,2.13
2023-09-28T15:15:43.909Z,2.22
2023-09-28T15:18:10.611Z,2.30
2023-09-28T15:20:37.407Z,2.35
2023-09-28T15:23:04.564Z,2.60
2023-09-28T15:25:31.126Z,2.55
2023-09-28T15:27:57.700Z,2.38
2023-09-28T15:30:24.237Z,2.67
2023-09-28T15:32:50.930Z,2.28
2023-09-28T15:35:17.818Z,2.33
2023-09-28T15:37:45.011Z,2.60
2023-09-28T15:40:13.954Z,2.88
2023-09-28T15:42:40.778Z,2.38
2023-09-28T15:45:09.232Z,2.70
2023-09-28T15:47:37.871Z,2.70
2023-09-28T15:50:05.100Z,2.90
2023-09-28T15:52:32.693Z,2.03
2023-09-28T15:54:59.959Z,2.30
2023-09-28T15:57:27.126Z,3.20
2023-09-28T15:59:53.913Z,2.55
2023-09-28T16:02:20.657Z,2.55
2023-09-28T16:04:47.099Z,2.78
2023-09-28T16:07:13.591Z,2.67
2023-09-28T16:09:39.959Z,2.90
2023-09-28T16:12:06.431Z,2.88
2023-09-28T16:14:35.984Z,2.50
2023-09-28T16:17:02.451Z,2.38
2023-09-28T16:19:29.017Z,2.60
2023-09-28T16:21:56.291Z,2.67
2023-09-28T16:24:22.803Z,2.53
2023-09-28T16:26:49.326Z,2.80
2023-09-28T16:29:15.906Z,3.00
2023-09-28T16:31:42.472Z,2.90
2023-09-28T16:34:09.480Z,2.75
2023-09-28T16:36:35.893Z,2.28
2023-09-28T16:39:02.599Z,3.08
2023-09-28T16:41:31.749Z,2.90
2023-09-28T16:43:58.211Z,2.42
2023-09-28T16:46:25.357Z,3.30
2023-09-28T16:48:51.840Z,2.33
2023-09-28T16:51:18.271Z,2.83
2023-09-28T16:53:44.979Z,2.67
2023-09-28T16:56:11.491Z,2.65
2023-09-28T16:58:40.561Z,2.72
2023-09-28T17:01:07.262Z,2.90
2023-09-28T17:03:34.904Z,2.90
2023-09-28T17:06:01.558Z,2.47
2023-09-28T17:08:28.058Z,2.70
2023-09-28T17:10:55.758Z,2.40
2023-09-28T17:13:25.006Z,2.55
2023-09-28T17:15:51.726Z,2.67
2023-09-28T17:18:21.656Z,2.85
2023-09-28T17:20:48.526Z,3.22
2023-09-28T17:23:15.314Z,2.63
2023-09-28T17:25:42.641Z,2.65
2023-09-28T17:28:09.332Z,2.85
2023-09-28T17:30:35.915Z,3.15
2023-09-28T17:33:02.591Z,2.95
2023-09-28T17:35:31.039Z,2.40
2023-09-28T17:37:57.556Z,2.42
2023-09-28T17:40:24.621Z,2.92
2023-09-28T17:42:51.716Z,2.95
2023-09-28T17:45:18.287Z,2.80
2023-09-28T17:47:46.836Z,2.75
2023-09-28T17:50:13.625Z,2.72
2023-09-28T17:52:40.102Z,2.63
2023-09-28T17:55:08.166Z,2.97
2023-09-28T17:57:35.585Z,3.80
2023-09-28T18:00:02.334Z,2.80
2023-09-28T18:02:28.993Z,2.67
2023-09-28T18:04:55.569Z,2.90
2023-09-28T18:07:22.028Z,3.17
2023-09-28T18:09:48.461Z,2.90
2023-09-28T18:12:15.638Z,2.55
2023-09-28T18:14:42.147Z,3.33
2023-09-28T18:17:08.590Z,2.80
2023-09-28T18:19:35.053Z,2.58
2023-09-28T18:22:01.751Z,2.95
2023-09-28T18:24:28.235Z,3.30
2023-09-28T18:26:54.759Z,2.72
2023-09-28T18:29:21.285Z,3.00
2023-09-28T18:31:47.746Z,2.75
2023-09-28T18:34:15.265Z,2.97
2023-09-28T18:36:42.000Z,2.97
2023-09-28T18:39:15.943Z,3.05
2023-09-28T18:41:48.646Z,3.38
2023-09-28T18:44:16.660Z,3.28
2023-09-28T18:46:43.294Z,3.00
2023-09-28T18:55:14.255Z,3.10
2023-09-28T18:57:41.196Z,3.35
2023-09-28T19:00:21.600Z,2.60
2023-09-28T19:02:51.159Z,3.17
2023-09-28T19:05:18.370Z,2.92
2023-09-28T19:07:46.380Z,3.42
2023-09-28T19:10:12.870Z,3.60
2023-09-28T19:12:39.579Z,3.33
2023-09-28T19:15:09.522Z,2.97
2023-09-28T19:17:37.029Z,3.00
2023-09-28T19:20:06.025Z,3.10
2023-09-28T19:22:35.426Z,3.40
2023-09-28T19:25:02.272Z,3.65
2023-09-28T19:27:38.675Z,2.72
2023-09-28T19:30:08.114Z,3.10
2023-09-28T19:32:36.968Z,3.80
2023-09-28T19:35:05.149Z,3.47
2023-09-28T19:37:31.625Z,3.58
2023-09-28T19:39:58.312Z,3.47
2023-09-28T19:42:24.916Z,3.30
2023-09-28T19:44:51.660Z,3.75
2023-09-28T19:47:18.113Z,3.20
2023-09-28T19:49:44.807Z,3.00
2023-09-28T19:52:11.923Z,3.40
2023-09-28T19:54:38.417Z,3.38
2023-09-28T19:57:05.268Z,3.90
2023-09-28T19:59:32.017Z,3.28
2023-09-28T20:01:59.107Z,3.85
2023-09-28T20:04:26.405Z,3.45
2023-09-28T20:06:53.232Z,3.08
2023-09-28T20:09:20.894Z,4.15
2023-09-28T20:11:47.555Z,3.10
2023-09-28T20:14:14.330Z,3.33
2023-09-28T20:16:40.883Z,3.53
2023-09-28T20:19:08.098Z,4.05
2023-09-28T20:21:34.605Z,3.92
2023-09-28T20:24:01.143Z,3.80
2023-09-28T20:26:27.705Z,3.50
2023-09-28T20:28:54.272Z,3.90
2023-09-28T20:31:20.695Z,3.83
2023-09-28T20:33:47.592Z,3.30
2023-09-28T20:36:18.678Z,3.70
2023-09-28T20:38:45.141Z,3.42
2023-09-28T20:41:12.096Z,3.65
2023-09-28T20:43:39.016Z,4.18
2023-09-28T20:46:05.536Z,3.78
2023-09-28T20:48:32.220Z,3.67
2023-09-28T20:50:59.623Z,4.45
2023-09-28T20:53:26.079Z,4.15
2023-09-28T20:55:52.745Z,3.88
2023-09-28T20:58:19.337Z,3.78
2023-09-28T21:00:45.870Z,3.88
2023-09-28T21:03:12.513Z,3.47
2023-09-28T21:05:39.189Z,4.68
2023-09-28T21:08:05.934Z,3.92
2023-09-28T21:10:32.407Z,4.38
2023-09-28T21:12:59.229Z,4.75
2023-09-28T21:15:25.807Z,4.22
2023-09-28T21:17:52.567Z,4.40
2023-09-28T21:20:19.689Z,4.50
2023-09-28T21:22:46.547Z,4.38
2023-09-28T21:25:13.111Z,4.32
2023-09-28T21:27:39.835Z,4.70
2023-09-28T21:30:09.684Z,4.65
2023-09-28T21:32:36.892Z,4.80
2023-09-28T21:35:03.674Z,4.90
2023-09-28T21:37:30.199Z,4.30
2023-09-28T21:39:56.699Z,4.63
2023-09-28T21:42:23.189Z,4.78
2023-09-28T21:44:49.894Z,4.78
2023-09-28T21:47:16.927Z,5.07
2023-09-28T21:49:43.458Z,5.07
2023-09-28T21:52:10.027Z,5.15
2023-09-28T21:54:38.760Z,5.05
2023-09-28T21:57:05.608Z,5.07
2023-09-28T21:59:33.045Z,5.38
2023-09-28T22:01:59.775Z,5.82
2023-09-28T22:04:26.282Z,5.70
2023-09-28T22:06:52.876Z,5.40
2023-09-28T22:09:19.399Z,5.50
2023-09-28T22:11:45.950Z,4.93
2023-09-28T22:14:12.501Z,5.28
2023-09-28T22:16:38.982Z,5.70
2023-09-28T22:19:05.658Z,5.68
2023-09-28T22:21:32.477Z,5.85
2023-09-28T22:23:59.093Z,5.80
2023-09-28T22:26:25.772Z,6.10
2023-09-28T22:28:52.727Z,6.00
2023-09-28T22:31:19.381Z,6.85
2023-09-28T22:33:46.128Z,5.88
2023-09-28T22:36:12.643Z,6.00
2023-09-28T22:38:39.863Z,5.85
2023-09-28T22:41:06.404Z,6.30
2023-09-28T22:43:33.062Z,5.28
2023-09-28T22:45:59.642Z,6.45
2023-09-28T22:48:26.447Z,5.55
2023-09-28T22:50:53.209Z,6.60
2023-09-28T22:53:19.803Z,5.68
2023-09-28T22:55:46.713Z,6.55
2023-09-28T22:58:13.180Z,5.57
2023-09-28T23:00:39.822Z,5.88
2023-09-28T23:03:07.280Z,5.93
2023-09-28T23:05:34.152Z,6.03
2023-09-28T23:08:02.148Z,6.03
2023-09-28T23:10:29.887Z,6.10
2023-09-28T23:12:57.127Z,6.70
2023-09-28T23:15:24.072Z,5.53
2023-09-28T23:17:50.746Z,5.30
2023-09-28T23:20:17.491Z,5.38
2023-09-28T23:22:45.152Z,5.75
2023-09-28T23:25:18.757Z,5.70
2023-09-28T23:27:52.314Z,5.78
2023-09-28T23:30:20.615Z,6.05
2023-09-28T23:32:52.102Z,5.55
2023-09-28T23:35:21.393Z,5.35
2023-09-28T23:37:49.213Z,5.38
2023-09-28T23:40:22.183Z,5.88
2023-09-28T23:42:49.888Z,5.43
2023-09-28T23:45:17.243Z,5.05
2023-09-28T23:47:45.210Z,5.25
2023-09-28T23:50:13.641Z,5.40
2023-09-28T23:52:41.258Z,5.35
2023-09-28T23:55:11.727Z,5.05
2023-09-28T23:57:38.682Z,5.55
